sensor_id;sensor_type;location;lat;lon;timestamp;pressure;altitude;pressure_sealevel;temperature;humidity
53526;BME280;40551;50.478;19.378;2023-09-19T00:01:11;97336.73;;;16.46;83.15
53526;BME280;40551;50.478;19.378;2023-09-19T00:03:43;97334.56;;;16.46;83.11
53526;BME280;40551;50.478;19.378;2023-09-19T00:06:14;97332.45;;;16.46;83.28
53526;BME280;40551;50.478;19.378;2023-09-19T00:08:47;97334.20;;;16.46;83.20
53526;BME280;40551;50.478;19.378;2023-09-19T00:11:18;97331.37;;;16.46;83.26
53526;BME280;40551;50.478;19.378;2023-09-19T00:13:50;97325.63;;;16.46;83.18
53526;BME280;40551;50.478;19.378;2023-09-19T00:16:22;97322.70;;;16.44;83.18
53526;BME280;40551;50.478;19.378;2023-09-19T00:18:54;97324.19;;;16.43;83.28
53526;BME280;40551;50.478;19.378;2023-09-19T00:21:25;97326.75;;;16.42;83.38
53526;BME280;40551;50.478;19.378;2023-09-19T00:23:57;97326.73;;;16.40;83.34
53526;BME280;40551;50.478;19.378;2023-09-19T00:26:29;97329.36;;;16.40;83.36
53526;BME280;40551;50.478;19.378;2023-09-19T00:29:02;97325.55;;;16.39;83.64
53526;BME280;40551;50.478;19.378;2023-09-19T00:31:34;97324.46;;;16.39;83.70
53526;BME280;40551;50.478;19.378;2023-09-19T00:34:08;97321.14;;;16.38;83.52
53526;BME280;40551;50.478;19.378;2023-09-19T00:36:41;97314.98;;;16.37;83.47
53526;BME280;40551;50.478;19.378;2023-09-19T00:39:13;97310.83;;;16.37;83.53
53526;BME280;40551;50.478;19.378;2023-09-19T00:41:46;97306.48;;;16.35;83.49
53526;BME280;40551;50.478;19.378;2023-09-19T00:44:20;97301.61;;;16.33;83.50
53526;BME280;40551;50.478;19.378;2023-09-19T00:46:53;97297.85;;;16.32;83.50
53526;BME280;40551;50.478;19.378;2023-09-19T00:49:25;97295.83;;;16.32;83.74
53526;BME280;40551;50.478;19.378;2023-09-19T00:51:58;97289.77;;;16.32;83.72
53526;BME280;40551;50.478;19.378;2023-09-19T00:54:30;97285.02;;;16.33;83.69
53526;BME280;40551;50.478;19.378;2023-09-19T00:57:05;97276.48;;;16.32;83.78
53526;BME280;40551;50.478;19.378;2023-09-19T00:59:38;97277.40;;;16.32;83.73
53526;BME280;40551;50.478;19.378;2023-09-19T01:02:10;97274.77;;;16.31;83.85
53526;BME280;40551;50.478;19.378;2023-09-19T01:04:45;97275.04;;;16.30;83.88
53526;BME280;40551;50.478;19.378;2023-09-19T01:07:17;97274.92;;;16.30;83.98
53526;BME280;40551;50.478;19.378;2023-09-19T01:09:50;97277.62;;;16.29;83.83
53526;BME280;40551;50.478;19.378;2023-09-19T01:12:28;97276.67;;;16.28;83.90
53526;BME280;40551;50.478;19.378;2023-09-19T01:15:10;97271.20;;;16.29;84.03
53526;BME280;40551;50.478;19.378;2023-09-19T01:17:49;97271.25;;;16.30;83.95
53526;BME280;40551;50.478;19.378;2023-09-19T01:20:29;97268.14;;;16.31;83.95
53526;BME280;40551;50.478;19.378;2023-09-19T01:23:13;97265.54;;;16.32;84.17
53526;BME280;40551;50.478;19.378;2023-09-19T01:26:10;97264.25;;;16.34;84.36
53526;BME280;40551;50.478;19.378;2023-09-19T01:28:57;97259.79;;;16.35;84.31
53526;BME280;40551;50.478;19.378;2023-09-19T01:31:34;97252.32;;;16.35;84.41
53526;BME280;40551;50.478;19.378;2023-09-19T01:34:10;97250.49;;;16.38;84.67
53526;BME280;40551;50.478;19.378;2023-09-19T01:36:42;97245.11;;;16.40;84.55
53526;BME280;40551;50.478;19.378;2023-09-19T01:39:16;97248.31;;;16.42;84.64
53526;BME280;40551;50.478;19.378;2023-09-19T01:41:56;97244.65;;;16.44;84.59
53526;BME280;40551;50.478;19.378;2023-09-19T01:44:40;97240.36;;;16.46;84.82
53526;BME280;40551;50.478;19.378;2023-09-19T01:47:19;97240.56;;;16.47;84.78
53526;BME280;40551;50.478;19.378;2023-09-19T01:49:55;97237.30;;;16.50;84.83
53526;BME280;40551;50.478;19.378;2023-09-19T01:52:30;97236.18;;;16.50;85.13
53526;BME280;40551;50.478;19.378;2023-09-19T01:55:08;97237.00;;;16.52;85.01
53526;BME280;40551;50.478;19.378;2023-09-19T01:57:45;97241.36;;;16.54;85.26
53526;BME280;40551;50.478;19.378;2023-09-19T02:00:21;97243.17;;;16.54;85.14
53526;BME280;40551;50.478;19.378;2023-09-19T02:02:57;97242.48;;;16.56;85.27
53526;BME280;40551;50.478;19.378;2023-09-19T02:05:30;97243.24;;;16.58;85.19
53526;BME280;40551;50.478;19.378;2023-09-19T02:08:04;97244.52;;;16.61;85.29
53526;BME280;40551;50.478;19.378;2023-09-19T02:10:36;97240.42;;;16.63;85.39
53526;BME280;40551;50.478;19.378;2023-09-19T02:13:08;97243.12;;;16.65;85.60
53526;BME280;40551;50.478;19.378;2023-09-19T02:15:40;97242.59;;;16.66;85.63
53526;BME280;40551;50.478;19.378;2023-09-19T02:18:14;97243.70;;;16.68;85.76
53526;BME280;40551;50.478;19.378;2023-09-19T02:20:46;97245.05;;;16.70;85.77
53526;BME280;40551;50.478;19.378;2023-09-19T02:23:18;97245.91;;;16.71;85.72
53526;BME280;40551;50.478;19.378;2023-09-19T02:25:54;97244.60;;;16.73;85.90
53526;BME280;40551;50.478;19.378;2023-09-19T02:28:27;97240.46;;;16.75;85.94
53526;BME280;40551;50.478;19.378;2023-09-19T02:31:00;97238.88;;;16.77;86.02
53526;BME280;40551;50.478;19.378;2023-09-19T02:33:32;97237.05;;;16.78;86.06
53526;BME280;40551;50.478;19.378;2023-09-19T02:36:05;97234.20;;;16.78;86.16
53526;BME280;40551;50.478;19.378;2023-09-19T02:38:36;97238.44;;;16.78;86.16
53526;BME280;40551;50.478;19.378;2023-09-19T02:41:08;97237.65;;;16.79;86.19
53526;BME280;40551;50.478;19.378;2023-09-19T02:43:40;97235.55;;;16.80;86.30
53526;BME280;40551;50.478;19.378;2023-09-19T02:46:14;97235.80;;;16.81;86.26
53526;BME280;40551;50.478;19.378;2023-09-19T02:48:47;97232.58;;;16.81;86.37
53526;BME280;40551;50.478;19.378;2023-09-19T02:51:19;97234.19;;;16.82;86.37
53526;BME280;40551;50.478;19.378;2023-09-19T02:53:51;97232.08;;;16.82;86.33
53526;BME280;40551;50.478;19.378;2023-09-19T02:56:23;97233.64;;;16.84;86.44
53526;BME280;40551;50.478;19.378;2023-09-19T02:58:55;97231.79;;;16.85;86.57
53526;BME280;40551;50.478;19.378;2023-09-19T03:01:28;97231.98;;;16.85;86.70
53526;BME280;40551;50.478;19.378;2023-09-19T03:04:00;97224.88;;;16.84;86.79
53526;BME280;40551;50.478;19.378;2023-09-19T03:06:33;97222.91;;;16.83;86.94
53526;BME280;40551;50.478;19.378;2023-09-19T03:09:04;97219.96;;;16.82;87.21
53526;BME280;40551;50.478;19.378;2023-09-19T03:11:44;97219.11;;;16.82;87.19
53526;BME280;40551;50.478;19.378;2023-09-19T03:14:16;97213.77;;;16.83;87.16
53526;BME280;40551;50.478;19.378;2023-09-19T03:16:50;97215.25;;;16.84;87.37
53526;BME280;40551;50.478;19.378;2023-09-19T03:19:23;97217.03;;;16.84;87.54
53526;BME280;40551;50.478;19.378;2023-09-19T03:21:57;97213.78;;;16.82;87.62
53526;BME280;40551;50.478;19.378;2023-09-19T03:24:29;97212.67;;;16.81;87.68
53526;BME280;40551;50.478;19.378;2023-09-19T03:27:02;97212.42;;;16.80;87.77
53526;BME280;40551;50.478;19.378;2023-09-19T03:29:35;97214.14;;;16.77;87.93
53526;BME280;40551;50.478;19.378;2023-09-19T03:32:07;97213.92;;;16.73;88.02
53526;BME280;40551;50.478;19.378;2023-09-19T03:34:40;97211.61;;;16.72;88.15
53526;BME280;40551;50.478;19.378;2023-09-19T03:37:14;97207.46;;;16.73;88.52
53526;BME280;40551;50.478;19.378;2023-09-19T03:39:46;97210.25;;;16.75;88.45
53526;BME280;40551;50.478;19.378;2023-09-19T03:42:18;97208.67;;;16.73;88.73
53526;BME280;40551;50.478;19.378;2023-09-19T03:44:56;97207.42;;;16.74;88.68
53526;BME280;40551;50.478;19.378;2023-09-19T03:47:27;97206.66;;;16.75;88.76
53526;BME280;40551;50.478;19.378;2023-09-19T03:49:59;97207.15;;;16.77;88.93
53526;BME280;40551;50.478;19.378;2023-09-19T03:52:31;97208.75;;;16.79;88.84
53526;BME280;40551;50.478;19.378;2023-09-19T03:55:04;97208.02;;;16.80;88.91
53526;BME280;40551;50.478;19.378;2023-09-19T03:57:36;97209.81;;;16.81;88.95
53526;BME280;40551;50.478;19.378;2023-09-19T04:00:09;97210.60;;;16.83;89.12
53526;BME280;40551;50.478;19.378;2023-09-19T04:02:43;97211.66;;;16.84;89.25
53526;BME280;40551;50.478;19.378;2023-09-19T04:05:16;97212.97;;;16.85;89.19
53526;BME280;40551;50.478;19.378;2023-09-19T04:07:49;97210.47;;;16.86;89.17
53526;BME280;40551;50.478;19.378;2023-09-19T04:10:20;97210.30;;;16.89;89.35
53526;BME280;40551;50.478;19.378;2023-09-19T04:12:53;97205.40;;;16.91;89.30
53526;BME280;40551;50.478;19.378;2023-09-19T04:15:25;97203.83;;;16.94;89.22
53526;BME280;40551;50.478;19.378;2023-09-19T04:17:57;97202.70;;;16.97;89.23
53526;BME280;40551;50.478;19.378;2023-09-19T04:20:30;97200.69;;;16.99;89.01
53526;BME280;40551;50.478;19.378;2023-09-19T04:23:02;97199.33;;;17.01;88.85
53526;BME280;40551;50.478;19.378;2023-09-19T04:25:35;97202.30;;;17.02;89.09
53526;BME280;40551;50.478;19.378;2023-09-19T04:28:08;97200.59;;;17.04;89.12
53526;BME280;40551;50.478;19.378;2023-09-19T04:30:40;97199.69;;;17.06;89.09
53526;BME280;40551;50.478;19.378;2023-09-19T04:33:12;97193.95;;;17.07;89.12
53526;BME280;40551;50.478;19.378;2023-09-19T04:35:44;97190.09;;;17.08;89.08
53526;BME280;40551;50.478;19.378;2023-09-19T04:38:16;97194.83;;;17.10;89.27
53526;BME280;40551;50.478;19.378;2023-09-19T04:40:48;97191.67;;;17.10;89.12
53526;BME280;40551;50.478;19.378;2023-09-19T04:43:19;97189.53;;;17.11;89.11
53526;BME280;40551;50.478;19.378;2023-09-19T04:45:51;97191.92;;;17.11;89.38
53526;BME280;40551;50.478;19.378;2023-09-19T04:48:26;97190.27;;;17.12;89.36
53526;BME280;40551;50.478;19.378;2023-09-19T04:50:59;97187.55;;;17.12;89.47
53526;BME280;40551;50.478;19.378;2023-09-19T04:53:31;97186.34;;;17.12;89.42
53526;BME280;40551;50.478;19.378;2023-09-19T04:56:04;97186.88;;;17.14;89.68
53526;BME280;40551;50.478;19.378;2023-09-19T04:58:38;97189.59;;;17.14;89.50
53526;BME280;40551;50.478;19.378;2023-09-19T05:01:09;97190.92;;;17.15;89.51
53526;BME280;40551;50.478;19.378;2023-09-19T05:03:43;97195.86;;;17.16;89.72
53526;BME280;40551;50.478;19.378;2023-09-19T05:06:15;97192.11;;;17.16;89.62
53526;BME280;40551;50.478;19.378;2023-09-19T05:08:47;97188.83;;;17.16;89.77
53526;BME280;40551;50.478;19.378;2023-09-19T05:11:20;97192.11;;;17.16;89.88
53526;BME280;40551;50.478;19.378;2023-09-19T05:13:53;97187.94;;;17.16;89.87
53526;BME280;40551;50.478;19.378;2023-09-19T05:16:25;97187.14;;;17.17;89.84
53526;BME280;40551;50.478;19.378;2023-09-19T05:18:56;97186.25;;;17.17;89.79
53526;BME280;40551;50.478;19.378;2023-09-19T05:21:28;97181.48;;;17.17;89.86
53526;BME280;40551;50.478;19.378;2023-09-19T05:24:01;97185.37;;;17.19;90.00
53526;BME280;40551;50.478;19.378;2023-09-19T05:26:33;97188.16;;;17.20;89.98
53526;BME280;40551;50.478;19.378;2023-09-19T05:29:05;97189.29;;;17.21;89.95
53526;BME280;40551;50.478;19.378;2023-09-19T05:31:38;97191.39;;;17.21;90.08
53526;BME280;40551;50.478;19.378;2023-09-19T05:34:12;97189.63;;;17.21;90.08
53526;BME280;40551;50.478;19.378;2023-09-19T05:36:44;97198.67;;;17.20;90.16
53526;BME280;40551;50.478;19.378;2023-09-19T05:39:16;97198.23;;;17.18;90.12
53526;BME280;40551;50.478;19.378;2023-09-19T05:41:47;97201.79;;;17.17;90.25
53526;BME280;40551;50.478;19.378;2023-09-19T05:44:19;97204.29;;;17.17;90.41
53526;BME280;40551;50.478;19.378;2023-09-19T05:46:51;97207.63;;;17.16;90.44
53526;BME280;40551;50.478;19.378;2023-09-19T05:49:23;97207.34;;;17.15;90.50
53526;BME280;40551;50.478;19.378;2023-09-19T05:51:56;97207.62;;;17.14;90.80
53526;BME280;40551;50.478;19.378;2023-09-19T05:54:29;97209.67;;;17.13;90.88
53526;BME280;40551;50.478;19.378;2023-09-19T05:57:01;97213.79;;;17.13;90.98
53526;BME280;40551;50.478;19.378;2023-09-19T05:59:33;97219.73;;;17.13;91.20
53526;BME280;40551;50.478;19.378;2023-09-19T06:02:04;97220.91;;;17.13;91.38
53526;BME280;40551;50.478;19.378;2023-09-19T06:04:37;97223.58;;;17.13;91.42
53526;BME280;40551;50.478;19.378;2023-09-19T06:07:11;97223.79;;;17.13;91.63
53526;BME280;40551;50.478;19.378;2023-09-19T06:09:43;97228.07;;;17.12;91.73
53526;BME280;40551;50.478;19.378;2023-09-19T06:12:14;97229.95;;;17.14;92.14
53526;BME280;40551;50.478;19.378;2023-09-19T06:14:47;97229.26;;;17.15;92.33
53526;BME280;40551;50.478;19.378;2023-09-19T06:17:19;97228.05;;;17.16;92.46
53526;BME280;40551;50.478;19.378;2023-09-19T06:19:52;97223.81;;;17.17;92.51
53526;BME280;40551;50.478;19.378;2023-09-19T06:22:26;97223.79;;;17.18;92.56
53526;BME280;40551;50.478;19.378;2023-09-19T06:24:58;97227.38;;;17.18;92.67
53526;BME280;40551;50.478;19.378;2023-09-19T06:27:30;97229.80;;;17.18;92.76
53526;BME280;40551;50.478;19.378;2023-09-19T06:30:02;97236.47;;;17.18;93.03
53526;BME280;40551;50.478;19.378;2023-09-19T06:32:34;97247.39;;;17.17;93.17
53526;BME280;40551;50.478;19.378;2023-09-19T06:35:07;97253.86;;;17.16;93.25
53526;BME280;40551;50.478;19.378;2023-09-19T06:37:42;97259.11;;;17.16;93.43
53526;BME280;40551;50.478;19.378;2023-09-19T06:40:15;97265.81;;;17.16;93.46
53526;BME280;40551;50.478;19.378;2023-09-19T06:42:49;97269.91;;;17.17;93.67
53526;BME280;40551;50.478;19.378;2023-09-19T06:45:21;97271.90;;;17.17;93.76
53526;BME280;40551;50.478;19.378;2023-09-19T06:47:53;97272.81;;;17.19;93.67
53526;BME280;40551;50.478;19.378;2023-09-19T06:50:29;97274.40;;;17.17;93.84
53526;BME280;40551;50.478;19.378;2023-09-19T06:53:03;97278.98;;;17.18;93.74
53526;BME280;40551;50.478;19.378;2023-09-19T06:55:35;97281.69;;;17.18;93.86
53526;BME280;40551;50.478;19.378;2023-09-19T06:58:07;97287.69;;;17.17;93.99
53526;BME280;40551;50.478;19.378;2023-09-19T07:00:39;97295.55;;;17.16;94.01
53526;BME280;40551;50.478;19.378;2023-09-19T07:03:10;97298.05;;;17.15;94.03
53526;BME280;40551;50.478;19.378;2023-09-19T07:05:48;97299.34;;;17.14;94.08
53526;BME280;40551;50.478;19.378;2023-09-19T07:08:22;97301.73;;;17.14;94.06
53526;BME280;40551;50.478;19.378;2023-09-19T07:10:55;97297.52;;;17.14;94.19
53526;BME280;40551;50.478;19.378;2023-09-19T07:13:27;97299.03;;;17.16;94.22
53526;BME280;40551;50.478;19.378;2023-09-19T07:16:00;97302.20;;;17.17;94.35
53526;BME280;40551;50.478;19.378;2023-09-19T07:18:32;97304.41;;;17.21;94.58
53526;BME280;40551;50.478;19.378;2023-09-19T07:21:03;97304.06;;;17.24;94.56
53526;BME280;40551;50.478;19.378;2023-09-19T07:23:36;97305.05;;;17.25;94.89
53526;BME280;40551;50.478;19.378;2023-09-19T07:26:09;97309.77;;;17.28;94.67
53526;BME280;40551;50.478;19.378;2023-09-19T07:28:42;97313.66;;;17.30;94.85
53526;BME280;40551;50.478;19.378;2023-09-19T07:31:14;97313.51;;;17.31;94.90
53526;BME280;40551;50.478;19.378;2023-09-19T07:33:47;97323.20;;;17.32;94.82
53526;BME280;40551;50.478;19.378;2023-09-19T07:36:19;97327.70;;;17.32;94.95
53526;BME280;40551;50.478;19.378;2023-09-19T07:38:50;97330.43;;;17.33;94.83
53526;BME280;40551;50.478;19.378;2023-09-19T07:41:22;97335.05;;;17.34;94.84
53526;BME280;40551;50.478;19.378;2023-09-19T07:43:54;97334.40;;;17.34;94.68
53526;BME280;40551;50.478;19.378;2023-09-19T07:46:27;97338.36;;;17.34;94.41
53526;BME280;40551;50.478;19.378;2023-09-19T07:48:59;97343.55;;;17.36;94.68
53526;BME280;40551;50.478;19.378;2023-09-19T07:51:31;97349.15;;;17.36;94.77
53526;BME280;40551;50.478;19.378;2023-09-19T07:54:03;97351.75;;;17.35;94.89
53526;BME280;40551;50.478;19.378;2023-09-19T07:56:35;97352.48;;;17.35;94.87
53526;BME280;40551;50.478;19.378;2023-09-19T07:59:07;97360.67;;;17.35;94.98
53526;BME280;40551;50.478;19.378;2023-09-19T08:01:40;97364.80;;;17.37;95.36
53526;BME280;40551;50.478;19.378;2023-09-19T08:04:13;97368.71;;;17.41;95.50
53526;BME280;40551;50.478;19.378;2023-09-19T08:06:45;97373.88;;;17.44;95.47
53526;BME280;40551;50.478;19.378;2023-09-19T08:09:17;97378.52;;;17.48;95.50
53526;BME280;40551;50.478;19.378;2023-09-19T08:11:55;97381.77;;;17.50;95.69
53526;BME280;40551;50.478;19.378;2023-09-19T08:14:28;97387.99;;;17.53;95.85
53526;BME280;40551;50.478;19.378;2023-09-19T08:16:59;97395.80;;;17.57;95.94
53526;BME280;40551;50.478;19.378;2023-09-19T08:19:31;97402.70;;;17.61;95.88
53526;BME280;40551;50.478;19.378;2023-09-19T08:22:04;97404.52;;;17.63;95.75
53526;BME280;40551;50.478;19.378;2023-09-19T08:24:35;97405.55;;;17.65;95.88
53526;BME280;40551;50.478;19.378;2023-09-19T08:27:07;97413.36;;;17.68;95.82
53526;BME280;40551;50.478;19.378;2023-09-19T08:29:40;97417.10;;;17.71;95.56
53526;BME280;40551;50.478;19.378;2023-09-19T08:32:13;97422.10;;;17.73;95.51
53526;BME280;40551;50.478;19.378;2023-09-19T08:34:45;97425.37;;;17.76;95.77
53526;BME280;40551;50.478;19.378;2023-09-19T08:37:17;97431.05;;;17.80;95.63
53526;BME280;40551;50.478;19.378;2023-09-19T08:39:49;97433.17;;;17.83;95.56
53526;BME280;40551;50.478;19.378;2023-09-19T08:42:21;97435.30;;;17.85;95.50
53526;BME280;40551;50.478;19.378;2023-09-19T08:44:56;97441.88;;;17.87;95.64
53526;BME280;40551;50.478;19.378;2023-09-19T08:47:33;97444.51;;;17.89;95.46
53526;BME280;40551;50.478;19.378;2023-09-19T08:50:14;97446.88;;;17.90;95.33
53526;BME280;40551;50.478;19.378;2023-09-19T08:52:52;97449.63;;;17.90;95.24
53526;BME280;40551;50.478;19.378;2023-09-19T08:55:28;97454.59;;;17.89;95.26
53526;BME280;40551;50.478;19.378;2023-09-19T08:58:03;97457.52;;;17.89;95.34
53526;BME280;40551;50.478;19.378;2023-09-19T09:00:36;97460.13;;;17.87;95.27
53526;BME280;40551;50.478;19.378;2023-09-19T09:03:10;97463.02;;;17.88;95.22
53526;BME280;40551;50.478;19.378;2023-09-19T09:05:44;97467.41;;;17.87;95.18
53526;BME280;40551;50.478;19.378;2023-09-19T09:08:16;97471.04;;;17.86;95.10
53526;BME280;40551;50.478;19.378;2023-09-19T09:10:48;97472.70;;;17.85;95.05
53526;BME280;40551;50.478;19.378;2023-09-19T09:13:20;97477.05;;;17.85;94.99
53526;BME280;40551;50.478;19.378;2023-09-19T09:15:55;97480.08;;;17.85;94.80
53526;BME280;40551;50.478;19.378;2023-09-19T09:18:27;97479.98;;;17.84;94.80
53526;BME280;40551;50.478;19.378;2023-09-19T09:21:00;97480.72;;;17.84;94.68
53526;BME280;40551;50.478;19.378;2023-09-19T09:23:32;97475.91;;;17.82;94.67
53526;BME280;40551;50.478;19.378;2023-09-19T09:26:04;97479.79;;;17.81;94.62
53526;BME280;40551;50.478;19.378;2023-09-19T09:28:45;97484.05;;;17.81;94.64
53526;BME280;40551;50.478;19.378;2023-09-19T09:31:27;97482.23;;;17.81;94.51
53526;BME280;40551;50.478;19.378;2023-09-19T09:33:59;97479.95;;;17.81;94.60
53526;BME280;40551;50.478;19.378;2023-09-19T09:36:39;97477.55;;;17.80;94.57
53526;BME280;40551;50.478;19.378;2023-09-19T09:39:12;97478.30;;;17.78;94.64
53526;BME280;40551;50.478;19.378;2023-09-19T09:41:48;97481.59;;;17.77;94.63
53526;BME280;40551;50.478;19.378;2023-09-19T09:44:20;97481.59;;;17.75;94.70
53526;BME280;40551;50.478;19.378;2023-09-19T09:46:52;97486.05;;;17.76;94.81
53526;BME280;40551;50.478;19.378;2023-09-19T09:49:50;97490.63;;;17.76;94.69
53526;BME280;40551;50.478;19.378;2023-09-19T09:52:47;97491.48;;;17.78;94.95
53526;BME280;40551;50.478;19.378;2023-09-19T09:55:20;97490.11;;;17.79;94.99
53526;BME280;40551;50.478;19.378;2023-09-19T10:00:54;97487.67;;;17.83;94.88
53526;BME280;40551;50.478;19.378;2023-09-19T10:03:36;97486.95;;;17.85;94.89
53526;BME280;40551;50.478;19.378;2023-09-19T10:06:13;97489.85;;;17.88;95.08
53526;BME280;40551;50.478;19.378;2023-09-19T10:09:02;97493.70;;;17.92;95.13
53526;BME280;40551;50.478;19.378;2023-09-19T10:11:43;97492.64;;;17.97;95.18
53526;BME280;40551;50.478;19.378;2023-09-19T10:14:17;97489.58;;;17.99;95.21
53526;BME280;40551;50.478;19.378;2023-09-19T10:16:50;97493.00;;;18.02;95.12
53526;BME280;40551;50.478;19.378;2023-09-19T10:19:33;97493.46;;;18.06;95.02
53526;BME280;40551;50.478;19.378;2023-09-19T10:22:08;97497.30;;;18.09;95.11
53526;BME280;40551;50.478;19.378;2023-09-19T10:24:41;97493.77;;;18.12;95.20
53526;BME280;40551;50.478;19.378;2023-09-19T10:27:31;97501.35;;;18.14;94.87
53526;BME280;40551;50.478;19.378;2023-09-19T10:30:09;97503.33;;;18.17;95.11
53526;BME280;40551;50.478;19.378;2023-09-19T10:32:42;97507.68;;;18.20;95.33
53526;BME280;40551;50.478;19.378;2023-09-19T10:35:18;97508.81;;;18.22;95.22
53526;BME280;40551;50.478;19.378;2023-09-19T10:37:59;97510.59;;;18.25;95.23
53526;BME280;40551;50.478;19.378;2023-09-19T10:40:32;97508.20;;;18.27;95.21
53526;BME280;40551;50.478;19.378;2023-09-19T10:43:22;97511.59;;;18.30;95.46
53526;BME280;40551;50.478;19.378;2023-09-19T10:46:00;97512.63;;;18.32;95.43
53526;BME280;40551;50.478;19.378;2023-09-19T10:48:34;97518.02;;;18.35;95.51
53526;BME280;40551;50.478;19.378;2023-09-19T10:51:09;97517.23;;;18.39;95.44
53526;BME280;40551;50.478;19.378;2023-09-19T10:53:47;97521.21;;;18.40;95.42
53526;BME280;40551;50.478;19.378;2023-09-19T10:56:23;97523.98;;;18.43;95.57
53526;BME280;40551;50.478;19.378;2023-09-19T10:59:06;97523.79;;;18.44;95.46
53526;BME280;40551;50.478;19.378;2023-09-19T11:01:45;97522.72;;;18.47;95.63
53526;BME280;40551;50.478;19.378;2023-09-19T11:04:29;97527.16;;;18.51;95.72
53526;BME280;40551;50.478;19.378;2023-09-19T11:07:03;97528.91;;;18.54;95.56
53526;BME280;40551;50.478;19.378;2023-09-19T11:09:51;97531.16;;;18.55;95.65
53526;BME280;40551;50.478;19.378;2023-09-19T11:12:50;97533.59;;;18.57;95.51
53526;BME280;40551;50.478;19.378;2023-09-19T11:24:32;97538.11;;;18.52;95.48
53526;BME280;40551;50.478;19.378;2023-09-19T11:27:16;97537.52;;;18.49;95.34
53526;BME280;40551;50.478;19.378;2023-09-19T11:29:49;97537.61;;;18.49;95.65
53526;BME280;40551;50.478;19.378;2023-09-19T11:36:00;97543.13;;;18.51;95.94
53526;BME280;40551;50.478;19.378;2023-09-19T11:41:45;97540.06;;;18.54;95.88
53526;BME280;40551;50.478;19.378;2023-09-19T11:44:36;97544.03;;;18.53;95.47
53526;BME280;40551;50.478;19.378;2023-09-19T11:47:09;97543.31;;;18.54;95.68
53526;BME280;40551;50.478;19.378;2023-09-19T11:49:43;97544.23;;;18.56;95.65
53526;BME280;40551;50.478;19.378;2023-09-19T11:52:22;97548.41;;;18.58;95.56
53526;BME280;40551;50.478;19.378;2023-09-19T11:54:57;97550.45;;;18.56;95.20
53526;BME280;40551;50.478;19.378;2023-09-19T11:57:30;97554.61;;;18.52;95.11
53526;BME280;40551;50.478;19.378;2023-09-19T12:00:03;97554.54;;;18.47;94.64
53526;BME280;40551;50.478;19.378;2023-09-19T12:02:43;97557.08;;;18.40;94.63
53526;BME280;40551;50.478;19.378;2023-09-19T12:05:19;97561.81;;;18.38;94.88
53526;BME280;40551;50.478;19.378;2023-09-19T12:07:59;97562.91;;;18.36;94.86
53526;BME280;40551;50.478;19.378;2023-09-19T12:10:32;97566.16;;;18.36;94.96
53526;BME280;40551;50.478;19.378;2023-09-19T12:13:06;97563.61;;;18.36;94.83
53526;BME280;40551;50.478;19.378;2023-09-19T12:15:40;97566.42;;;18.34;94.72
53526;BME280;40551;50.478;19.378;2023-09-19T12:18:31;97570.34;;;18.31;95.01
53526;BME280;40551;50.478;19.378;2023-09-19T12:21:06;97574.65;;;18.32;95.12
53526;BME280;40551;50.478;19.378;2023-09-19T12:23:42;97578.84;;;18.30;95.24
53526;BME280;40551;50.478;19.378;2023-09-19T12:26:14;97576.70;;;18.30;94.91
53526;BME280;40551;50.478;19.378;2023-09-19T12:28:47;97578.50;;;18.28;94.81
53526;BME280;40551;50.478;19.378;2023-09-19T12:31:19;97574.58;;;18.23;94.72
53526;BME280;40551;50.478;19.378;2023-09-19T12:33:55;97576.69;;;18.23;94.73
53526;BME280;40551;50.478;19.378;2023-09-19T12:36:28;97575.73;;;18.22;94.98
53526;BME280;40551;50.478;19.378;2023-09-19T12:39:01;97579.87;;;18.22;95.07
53526;BME280;40551;50.478;19.378;2023-09-19T12:41:39;97575.64;;;18.23;95.07
53526;BME280;40551;50.478;19.378;2023-09-19T12:44:13;97580.27;;;18.21;94.67
53526;BME280;40551;50.478;19.378;2023-09-19T12:46:50;97584.34;;;18.17;94.53
53526;BME280;40551;50.478;19.378;2023-09-19T12:49:28;97582.80;;;18.17;94.84
53526;BME280;40551;50.478;19.378;2023-09-19T12:52:03;97584.63;;;18.18;95.12
53526;BME280;40551;50.478;19.378;2023-09-19T12:54:41;97581.99;;;18.18;95.17
53526;BME280;40551;50.478;19.378;2023-09-19T12:57:27;97586.05;;;18.19;95.14
53526;BME280;40551;50.478;19.378;2023-09-19T12:59:59;97589.28;;;18.20;95.18
53526;BME280;40551;50.478;19.378;2023-09-19T13:02:33;97586.76;;;18.21;95.33
53526;BME280;40551;50.478;19.378;2023-09-19T13:05:07;97586.93;;;18.23;95.35
53526;BME280;40551;50.478;19.378;2023-09-19T13:07:45;97585.38;;;18.26;95.12
53526;BME280;40551;50.478;19.378;2023-09-19T13:10:22;97582.85;;;18.29;95.16
53526;BME280;40551;50.478;19.378;2023-09-19T13:12:55;97582.96;;;18.33;95.28
53526;BME280;40551;50.478;19.378;2023-09-19T13:15:54;97582.89;;;18.39;95.22
53526;BME280;40551;50.478;19.378;2023-09-19T13:18:28;97578.90;;;18.43;95.21
53526;BME280;40551;50.478;19.378;2023-09-19T13:21:10;97586.09;;;18.46;95.18
53526;BME280;40551;50.478;19.378;2023-09-19T13:23:54;97588.98;;;18.48;95.11
53526;BME280;40551;50.478;19.378;2023-09-19T13:26:33;97588.59;;;18.50;95.41
53526;BME280;40551;50.478;19.378;2023-09-19T13:29:07;97590.52;;;18.52;95.43
53526;BME280;40551;50.478;19.378;2023-09-19T13:31:39;97593.83;;;18.56;95.23
53526;BME280;40551;50.478;19.378;2023-09-19T13:34:12;97596.23;;;18.59;95.20
53526;BME280;40551;50.478;19.378;2023-09-19T13:36:46;97594.11;;;18.63;95.27
53526;BME280;40551;50.478;19.378;2023-09-19T13:39:19;97600.52;;;18.67;95.55
53526;BME280;40551;50.478;19.378;2023-09-19T13:41:51;97599.48;;;18.71;95.40
53526;BME280;40551;50.478;19.378;2023-09-19T13:44:22;97600.89;;;18.73;95.10
53526;BME280;40551;50.478;19.378;2023-09-19T13:46:54;97595.80;;;18.73;94.92